Terminal Aerodrome Forecast
Issued by NWS Jackson, MS

Home | Current Version | Previous Version | Text Only | Print | Product List | Glossary On
Versions: 1 2 3 4 5 6 7 8 9 10 11 12
245
FTUS44 KJAN 041122
TAFHBG
TAF
KHBG 041122Z 0412/0512 07003KT 6SM BR VCTS OVC025CB
     FM050200 01005KT 6SM BR VCSH OVC015
     FM050400 02006KT 5SM BR VCSH OVC007=

USA.gov is the U.S. government's official web portal to all federal, state and local government web resources and services.